Time;durP1;ratioP1;P1;durP2;ratioP2;P2;SDS_P1;SDS_P2;PMS_P1;PMS_P2;Temp;Humidity;BMP_temperature;BMP_pressure;BME280_temperature;BME280_humidity;BME280_pressure;Samples;Min_cycle;Max_cycle;Signal;HPM_P1;HPM_P2
2023/05/05 00:02:11;;;;;;;3.65;1.63;;;;;;;29.92;41.72;99327.69;7395042;19;20026;-60
2023/05/05 00:04:37;;;;;;;1.80;1.17;;;;;;;29.73;41.77;99312.81;7396335;19;20498;-60
2023/05/05 00:07:03;;;;;;;1.83;0.93;;;;;;;30.37;41.24;99321.81;7395802;19;20017;-60
2023/05/05 00:09:29;;;;;;;4.25;1.10;;;;;;;29.71;42.12;99316.31;7401609;19;20014;-60
2023/05/05 00:11:55;;;;;;;3.45;1.27;;;;;;;30.50;40.98;99306.78;7396756;19;20025;-60
2023/05/05 00:14:21;;;;;;;3.08;1.52;;;;;;;30.45;41.54;99305.06;7400556;19;20074;-60
2023/05/05 00:16:48;;;;;;;2.60;0.77;;;;;;;30.84;40.54;99305.19;7395229;19;20430;-60
2023/05/05 00:19:14;;;;;;;2.67;1.27;;;;;;;30.93;40.97;99305.03;7397640;19;20034;-60
2023/05/05 00:21:40;;;;;;;1.65;1.05;;;;;;;31.04;40.59;99312.88;7399248;19;20604;-60
2023/05/05 00:24:08;;;;;;;3.75;1.45;;;;;;;31.10;40.20;99309.59;7399755;19;20459;-60
2023/05/05 00:26:35;;;;;;;5.85;1.75;;;;;;;31.13;40.50;99311.97;7395559;19;20022;-60
2023/05/05 00:29:01;;;;;;;9.02;2.65;;;;;;;31.12;40.16;99319.09;7394448;19;20015;-60
2023/05/05 00:31:27;;;;;;;10.70;1.63;;;;;;;31.38;40.18;99314.09;7394138;19;20014;-60
2023/05/05 00:33:53;;;;;;;8.60;1.60;;;;;;;31.39;39.90;99319.19;7398669;19;20015;-60
2023/05/05 00:36:19;;;;;;;2.75;1.67;;;;;;;31.55;39.81;99307.13;7395917;19;20011;-60
2023/05/05 00:38:46;;;;;;;1.77;0.88;;;;;;;31.47;39.88;99309.56;7393829;19;20010;-60
2023/05/05 00:41:12;;;;;;;6.13;1.73;;;;;;;31.03;40.74;99308.50;7397661;19;20021;-60
2023/05/05 00:43:38;;;;;;;5.93;1.83;;;;;;;31.30;40.04;99311.50;7398079;19;20034;-60
2023/05/05 00:46:25;;;;;;;3.05;1.63;;;;;;;30.98;40.66;99303.91;7394680;19;20015;-60
2023/05/05 00:48:52;;;;;;;3.63;1.17;;;;;;;31.08;40.46;99306.63;7395333;19;20056;-60
2023/05/05 00:51:19;;;;;;;6.03;1.20;;;;;;;31.17;40.51;99308.56;7398429;19;20015;-60
2023/05/05 00:53:47;;;;;;;1.70;0.93;;;;;;;31.33;39.89;99298.72;7400113;19;20010;-60
2023/05/05 00:56:15;;;;;;;5.05;1.92;;;;;;;31.32;39.58;99307.97;7394843;19;20353;-60
2023/05/05 00:58:42;;;;;;;6.47;2.08;;;;;;;31.46;39.68;99305.16;7395289;19;20467;-60
2023/05/05 01:01:10;;;;;;;2.10;0.88;;;;;;;31.65;39.39;99299.78;7392954;19;20043;-60
2023/05/05 01:03:38;;;;;;;2.22;1.50;;;;;;;31.67;39.53;99302.00;7397087;19;20022;-60
2023/05/05 01:06:14;;;;;;;3.45;0.63;;;;;;;31.78;39.48;99301.94;7393350;19;20110;-59
2023/05/05 01:09:06;;;;;;;2.55;0.65;;;;;;;32.01;38.90;99295.25;7391746;19;20021;-60
2023/05/05 01:11:35;;;;;;;3.20;1.77;;;;;;;31.96;39.27;99288.53;7397025;19;20015;-60
2023/05/05 01:14:42;;;;;;;4.38;1.65;;;;;;;32.29;38.63;99299.63;7398266;19;20010;-60
2023/05/05 01:17:23;;;;;;;9.93;1.45;;;;;;;31.94;38.70;99297.06;7394082;19;20041;-60
2023/05/05 01:19:58;;;;;;;3.85;1.40;;;;;;;31.72;38.94;99303.72;7397564;19;20035;-60
2023/05/05 01:22:33;;;;;;;1.90;1.55;;;;;;;31.87;38.90;99303.09;7392949;19;20035;-60
2023/05/05 01:25:25;;;;;;;8.55;1.60;;;;;;;31.90;38.76;99299.69;7395944;19;20010;-60
2023/05/05 01:28:04;;;;;;;3.75;1.42;;;;;;;31.70;39.00;99295.75;7391938;19;20009;-60
2023/05/05 01:30:56;;;;;;;2.47;1.80;;;;;;;31.60;39.08;99298.03;7393233;19;20455;-60
2023/05/05 01:33:27;;;;;;;5.47;2.58;;;;;;;31.49;39.10;99296.00;7393956;19;20011;-60
2023/05/05 01:36:02;;;;;;;2.50;1.67;;;;;;;31.64;39.34;99297.53;7397156;19;20522;-60
2023/05/05 01:38:43;;;;;;;3.60;0.85;;;;;;;31.65;39.19;99293.25;7392559;19;20043;-60
2023/05/05 01:41:17;;;;;;;6.85;1.45;;;;;;;31.57;39.72;99292.81;7391456;19;20030;-60
2023/05/05 01:43:47;;;;;;;2.28;1.25;;;;;;;31.50;39.60;99302.50;7395990;19;20046;-59
2023/05/05 01:46:15;;;;;;;1.23;0.85;;;;;;;31.05;39.80;99290.63;7393258;19;20026;-60
2023/05/05 01:48:42;;;;;;;4.35;1.60;;;;;;;31.16;39.93;99290.56;7392321;19;20412;-60
2023/05/05 01:51:10;;;;;;;3.53;1.80;;;;;;;31.30;39.94;99294.22;7393009;19;20013;-60
2023/05/05 01:53:38;;;;;;;5.63;1.80;;;;;;;31.30;40.01;99288.47;7394448;19;20406;-60
2023/05/05 01:56:05;;;;;;;0.85;0.60;;;;;;;31.46;39.96;99293.66;7392461;19;20066;-60
2023/05/05 01:58:32;;;;;;;3.88;1.67;;;;;;;31.53;39.39;99293.38;7391668;19;20015;-60
2023/05/05 02:01:00;;;;;;;1.65;1.08;;;;;;;32.00;38.83;99288.75;7391562;19;20010;-60
2023/05/05 02:03:27;;;;;;;3.85;1.20;;;;;;;32.09;38.74;99278.41;7394125;19;20459;-60
2023/05/05 02:05:56;;;;;;;5.30;1.92;;;;;;;31.87;38.82;99288.72;7391369;19;20079;-60
2023/05/05 02:08:25;;;;;;;1.42;0.80;;;;;;;31.73;38.93;99287.97;7392960;19;20073;-60
2023/05/05 02:10:53;;;;;;;1.30;0.68;;;;;;;31.74;38.69;99284.44;7392187;19;20011;-60
2023/05/05 02:13:22;;;;;;;3.28;1.45;;;;;;;31.62;39.10;99289.50;7393709;19;20425;-60
2023/05/05 02:15:49;;;;;;;2.08;0.90;;;;;;;31.61;39.08;99293.78;7389653;19;20480;-60
2023/05/05 02:18:16;;;;;;;1.95;1.00;;;;;;;31.76;39.06;99298.94;7391260;19;20039;-60
2023/05/05 02:20:44;;;;;;;3.63;1.65;;;;;;;31.61;39.20;99293.03;7394648;19;20232;-60
2023/05/05 02:23:10;;;;;;;6.30;1.67;;;;;;;31.55;39.17;99295.59;7393701;19;20329;-61
2023/05/05 02:25:41;;;;;;;3.30;1.40;;;;;;;31.52;39.09;99296.84;7392579;19;20056;-60
2023/05/05 02:28:19;;;;;;;3.50;1.48;;;;;;;31.52;39.15;99303.38;7390979;19;20015;-60
2023/05/05 02:30:53;;;;;;;16.48;1.83;;;;;;;31.48;39.27;99297.41;7392162;19;20022;-60
2023/05/05 02:33:21;;;;;;;4.32;2.15;;;;;;;31.51;39.08;99301.13;7396040;19;20037;-60
2023/05/05 02:35:52;;;;;;;1.33;0.93;;;;;;;31.73;39.02;99299.47;7390719;19;20014;-60
2023/05/05 02:38:26;;;;;;;2.03;1.00;;;;;;;31.74;38.79;99290.19;7390099;19;20369;-60
2023/05/05 02:40:58;;;;;;;4.15;1.02;;;;;;;31.74;39.15;99289.44;7389784;19;20103;-60
2023/05/05 02:43:25;;;;;;;2.03;1.05;;;;;;;31.82;38.21;99290.63;7391794;19;20458;-60
2023/05/05 02:45:52;;;;;;;2.60;0.82;;;;;;;32.38;37.84;99290.00;7389435;19;20362;-60
2023/05/05 02:48:19;;;;;;;2.10;0.60;;;;;;;32.64;37.81;99290.59;7388253;19;20021;-60
2023/05/05 02:50:46;;;;;;;8.02;1.65;;;;;;;32.65;37.30;99286.34;7390241;19;20023;-60
2023/05/05 02:53:31;;;;;;;6.63;2.15;;;;;;;32.52;37.40;99290.00;7395531;19;20006;-60
2023/05/05 02:56:22;;;;;;;0.70;0.55;;;;;;;32.93;36.85;99290.63;7396288;19;20023;-60
2023/05/05 02:59:01;;;;;;;3.08;1.20;;;;;;;32.99;36.37;99290.19;7398430;19;20010;-60
2023/05/05 03:01:31;;;;;;;2.42;1.48;;;;;;;33.05;36.28;99299.91;7398516;19;20066;-60
2023/05/05 03:04:05;;;;;;;2.72;1.17;;;;;;;33.05;36.33;99299.19;7397830;19;20536;-60
2023/05/05 03:06:39;;;;;;;1.90;0.63;;;;;;;33.04;36.11;99292.66;7400930;19;20011;-60
2023/05/05 03:09:06;;;;;;;2.08;1.42;;;;;;;32.92;36.04;99294.19;7394724;19;20014;-60
2023/05/05 03:11:48;;;;;;;2.15;1.42;;;;;;;32.95;36.45;99284.22;7396903;19;20022;-60
2023/05/05 03:14:18;;;;;;;7.82;1.52;;;;;;;32.61;36.78;99286.91;7399179;19;20017;-60
2023/05/05 03:16:46;;;;;;;;;;;;;;;32.92;36.73;99287.00;7397444;19;20044;-60
2023/05/05 03:19:17;;;;;;;8.35;0.95;;;;;;;32.75;36.87;99295.50;7397447;19;19974;-60
2023/05/05 03:21:46;;;;;;;2.70;0.93;;;;;;;32.63;36.77;99289.88;7399985;19;20019;-60
2023/05/05 03:24:17;;;;;;;0.60;0.52;;;;;;;33.14;36.38;99295.28;7399927;19;20014;-60
2023/05/05 03:26:49;;;;;;;2.30;1.13;;;;;;;33.29;36.25;99294.56;7395930;19;20031;-61
2023/05/05 03:29:19;;;;;;;2.85;1.35;;;;;;;33.28;36.14;99295.97;7396191;19;20097;-60
2023/05/05 03:31:45;;;;;;;3.97;0.85;;;;;;;33.87;35.59;99291.56;7395592;19;20477;-60
2023/05/05 03:34:11;;;;;;;2.65;1.27;;;;;;;34.12;35.43;99290.53;7399846;19;20066;-60
2023/05/05 03:36:43;;;;;;;1.92;1.20;;;;;;;34.40;34.76;99296.81;7397000;19;20013;-60
2023/05/05 03:39:12;;;;;;;3.90;1.52;;;;;;;34.47;34.94;99290.63;7398531;19;20018;-60
2023/05/05 03:41:38;;;;;;;1.50;0.77;;;;;;;34.43;34.73;99298.38;7395546;19;20026;-60
2023/05/05 03:44:07;;;;;;;3.60;0.95;;;;;;;34.42;34.82;99296.88;7397789;19;20014;-60
2023/05/05 03:46:34;;;;;;;2.22;0.70;;;;;;;34.56;34.64;99292.50;7399366;19;20029;-60
2023/05/05 03:49:01;;;;;;;2.47;1.27;;;;;;;34.56;34.99;99292.50;7394792;19;20013;-60
2023/05/05 03:51:27;;;;;;;1.35;0.68;;;;;;;34.53;34.50;99299.59;7395666;19;20022;-60
2023/05/05 03:53:54;;;;;;;3.03;0.80;;;;;;;34.51;34.23;99290.84;7395820;19;20035;-60
2023/05/05 03:56:21;;;;;;;2.17;0.47;;;;;;;34.46;34.54;99299.97;7395648;19;20023;-61
2023/05/05 03:58:47;;;;;;;0.75;0.40;;;;;;;34.43;34.60;99292.59;7395434;19;20090;-60
2023/05/05 04:01:14;;;;;;;0.95;0.70;;;;;;;34.49;34.76;99287.81;7396491;19;20018;-60
2023/05/05 04:03:40;;;;;;;3.85;1.23;;;;;;;34.30;34.92;99280.53;7394812;19;20031;-60
2023/05/05 04:06:06;;;;;;;1.48;0.40;;;;;;;34.33;34.63;99284.22;7397675;19;20002;-61
2023/05/05 04:08:33;;;;;;;1.13;0.38;;;;;;;34.12;34.66;99278.97;7395286;19;20021;-60
2023/05/05 04:11:01;;;;;;;0.98;0.32;;;;;;;34.08;34.76;99291.09;7395246;19;20023;-61
2023/05/05 04:13:28;;;;;;;4.80;0.80;;;;;;;34.09;34.51;99286.81;7394637;19;20025;-60
2023/05/05 04:15:54;;;;;;;0.65;0.65;;;;;;;34.21;34.34;99280.81;7397467;19;20367;-61
2023/05/05 04:18:22;;;;;;;0.55;0.55;;;;;;;34.42;34.73;99294.00;7394107;19;20045;-61
2023/05/05 04:20:48;;;;;;;2.35;0.90;;;;;;;34.36;34.65;99285.81;7395259;19;20087;-61
2023/05/05 04:23:15;;;;;;;1.00;0.45;;;;;;;34.50;34.34;99294.38;7394801;19;20027;-61
2023/05/05 04:25:43;;;;;;;2.15;0.20;;;;;;;34.55;34.24;99296.03;7398478;19;20010;-61
2023/05/05 04:28:11;;;;;;;0.75;0.57;;;;;;;34.63;34.41;99288.44;7393586;19;20649;-61
2023/05/05 04:30:37;;;;;;;0.77;0.30;;;;;;;34.57;33.93;99290.34;7398644;19;20074;-61
2023/05/05 04:33:03;;;;;;;1.30;0.85;;;;;;;34.57;34.45;99293.22;7394065;19;20015;-61
2023/05/05 04:35:30;;;;;;;3.65;0.82;;;;;;;34.58;34.61;99294.72;7398032;19;20018;-61
2023/05/05 04:37:57;;;;;;;0.40;0.40;;;;;;;34.66;34.38;99295.81;7394395;19;20006;-61
2023/05/05 04:40:25;;;;;;;1.30;0.68;;;;;;;34.52;34.28;99297.38;7393764;19;20034;-61
2023/05/05 04:42:51;;;;;;;0.98;0.50;;;;;;;34.66;34.08;99295.81;7393344;19;20361;-61
2023/05/05 04:45:17;;;;;;;1.20;0.50;;;;;;;34.68;34.15;99298.03;7396366;19;20007;-61
2023/05/05 04:47:44;;;;;;;0.70;0.38;;;;;;;34.88;34.06;99304.69;7397951;19;20359;-61
2023/05/05 04:50:10;;;;;;;0.40;0.30;;;;;;;34.87;34.15;99294.53;7397562;19;20090;-61
2023/05/05 04:52:38;;;;;;;0.60;0.52;;;;;;;34.80;34.09;99296.44;7393287;19;20021;-62
2023/05/05 04:55:05;;;;;;;3.63;0.90;;;;;;;35.01;33.90;99301.66;7395119;19;20463;-62
2023/05/05 04:57:32;;;;;;;0.65;0.40;;;;;;;34.92;34.13;99305.59;7393051;19;20038;-62
2023/05/05 04:59:59;;;;;;;5.22;1.65;;;;;;;34.78;33.90;99304.28;7393314;19;20015;-62
2023/05/05 05:02:26;;;;;;;0.98;0.57;;;;;;;34.74;33.86;99295.44;7393030;19;20016;-61
2023/05/05 05:04:52;;;;;;;0.50;0.40;;;;;;;34.69;33.94;99302.44;7394962;19;20029;-61
2023/05/05 05:07:18;;;;;;;2.67;0.70;;;;;;;34.80;34.32;99292.78;7392845;19;20364;-62
2023/05/05 05:09:44;;;;;;;6.03;0.95;;;;;;;34.94;34.35;99304.94;7396711;19;20079;-61
2023/05/05 05:12:11;;;;;;;2.28;0.85;;;;;;;34.95;33.79;99303.53;7393660;19;20025;-61
2023/05/05 05:14:38;;;;;;;2.67;0.47;;;;;;;34.94;33.90;99302.03;7394508;19;20111;-61
2023/05/05 05:17:05;;;;;;;1.30;0.65;;;;;;;34.87;34.02;99309.00;7392270;19;20343;-61
2023/05/05 05:19:33;;;;;;;1.05;0.55;;;;;;;34.88;33.99;99304.69;7395163;19;20496;-61
2023/05/05 05:21:59;;;;;;;1.90;0.80;;;;;;;34.88;34.07;99316.25;7393100;19;20471;-61
2023/05/05 05:24:26;;;;;;;1.48;0.55;;;;;;;34.84;33.76;99319.00;7397507;19;20018;-62
2023/05/05 05:26:53;;;;;;;1.67;0.70;;;;;;;34.92;33.94;99310.63;7396246;19;20010;-61
2023/05/05 05:29:20;;;;;;;1.60;0.47;;;;;;;35.03;33.90;99307.53;7397458;19;20044;-62
2023/05/05 05:31:48;;;;;;;1.42;0.57;;;;;;;35.11;33.68;99312.19;7392156;19;20018;-63
2023/05/05 05:34:15;;;;;;;1.90;0.85;;;;;;;35.09;33.55;99312.81;7392756;19;20391;-63
2023/05/05 05:36:42;;;;;;;2.63;0.60;;;;;;;35.06;33.87;99320.66;7393018;19;20340;-63
2023/05/05 05:39:08;;;;;;;7.03;1.15;;;;;;;34.98;33.35;99325.34;7393037;19;20094;-63
2023/05/05 05:41:34;;;;;;;0.47;0.47;;;;;;;34.89;33.81;99323.56;7394055;19;20010;-64
2023/05/05 05:44:01;;;;;;;8.60;1.10;;;;;;;34.91;33.85;99327.25;7391573;19;20018;-64
2023/05/05 05:46:27;;;;;;;2.85;0.85;;;;;;;34.93;33.87;99324.44;7395559;19;20045;-64
2023/05/05 05:48:54;;;;;;;1.58;0.40;;;;;;;34.99;33.40;99321.06;7396157;19;20010;-64
2023/05/05 05:51:20;;;;;;;2.03;0.85;;;;;;;34.96;33.90;99333.97;7391809;19;20014;-63
2023/05/05 05:53:48;;;;;;;2.22;1.05;;;;;;;34.92;34.04;99331.66;7391995;19;20038;-62
2023/05/05 05:56:14;;;;;;;7.07;0.85;;;;;;;34.93;34.13;99335.28;7391133;19;20335;-63
2023/05/05 05:58:41;;;;;;;0.57;0.52;;;;;;;34.99;34.00;99335.53;7391873;19;20062;-62
2023/05/05 06:01:08;;;;;;;4.05;1.55;;;;;;;35.02;33.68;99337.88;7391762;19;20018;-62
2023/05/05 06:03:34;;;;;;;0.95;0.75;;;;;;;34.90;33.71;99342.41;7392561;19;20015;-62
2023/05/05 06:06:01;;;;;;;6.00;2.05;;;;;;;34.95;33.81;99344.06;7391962;19;20496;-63
2023/05/05 06:08:27;;;;;;;2.33;1.52;;;;;;;35.11;33.90;99349.81;7390110;19;20014;-63
2023/05/05 06:10:56;;;;;;;7.47;2.58;;;;;;;35.25;33.90;99348.25;7395385;19;20070;-63
2023/05/05 06:13:23;;;;;;;4.15;0.93;;;;;;;35.28;33.80;99352.69;7394823;19;20014;-62
2023/05/05 06:15:51;;;;;;;1.77;0.65;;;;;;;35.23;33.86;99345.25;7391304;19;20014;-62
2023/05/05 06:18:18;;;;;;;4.78;1.30;;;;;;;35.18;34.15;99349.38;7390198;19;20332;-62
2023/05/05 06:20:47;;;;;;;1.75;0.50;;;;;;;35.11;33.68;99362.13;7391860;19;20029;-62
2023/05/05 06:23:14;;;;;;;3.83;0.73;;;;;;;35.06;33.94;99360.47;7386420;19;20034;-62
2023/05/05 06:25:46;;;;;;;3.58;0.73;;;;;;;35.35;33.89;99356.56;7386992;19;20014;-62
2023/05/05 06:28:12;;;;;;;6.72;1.23;;;;;;;35.44;33.78;99364.19;7394148;19;20007;-63
2023/05/05 06:30:38;;;;;;;2.05;1.52;;;;;;;35.38;33.89;99364.69;7399612;19;20699;-62
2023/05/05 06:33:04;;;;;;;3.55;1.00;;;;;;;35.48;34.37;99367.28;7400909;19;20331;-62
2023/05/05 06:35:31;;;;;;;1.23;0.80;;;;;;;35.45;34.09;99357.75;7403882;19;20007;-63
2023/05/05 06:37:57;;;;;;;8.60;0.55;;;;;;;35.46;33.95;99367.91;7403969;19;20100;-63
2023/05/05 06:40:23;;;;;;;1.85;0.40;;;;;;;35.50;33.95;99365.19;7403203;19;20030;-63
2023/05/05 06:42:49;;;;;;;3.45;1.40;;;;;;;35.49;34.28;99372.41;7402900;19;20021;-63
2023/05/05 06:45:21;;;;;;;2.58;0.70;;;;;;;35.59;33.90;99369.91;7398063;19;20025;-63
2023/05/05 06:47:48;;;;;;;2.55;1.10;;;;;;;35.70;34.17;99365.25;7398877;19;20010;-63
2023/05/05 06:50:14;;;;;;;1.90;0.65;;;;;;;35.78;33.76;99369.22;7403680;19;20042;-64
2023/05/05 06:52:40;;;;;;;5.60;1.60;;;;;;;35.49;33.69;99378.22;7401584;19;20019;-64
2023/05/05 06:55:07;;;;;;;4.47;1.20;;;;;;;35.66;33.77;99385.38;7401084;19;20470;-64
2023/05/05 06:57:33;;;;;;;1.30;0.50;;;;;;;35.78;33.77;99386.59;7398291;19;20014;-64
2023/05/05 06:59:59;;;;;;;1.45;0.47;;;;;;;35.61;33.60;99378.69;7398525;19;20019;-63
2023/05/05 07:02:25;;;;;;;1.45;0.70;;;;;;;35.66;33.76;99389.03;7398404;19;20018;-63
2023/05/05 07:04:54;;;;;;;7.40;0.77;;;;;;;35.80;33.40;99389.59;7401286;19;20030;-63
2023/05/05 07:07:20;;;;;;;0.95;0.55;;;;;;;35.94;33.31;99386.50;7397835;19;20026;-63
2023/05/05 07:09:46;;;;;;;1.48;0.52;;;;;;;35.73;33.74;99390.78;7396826;19;20094;-63
2023/05/05 07:12:12;;;;;;;8.98;0.85;;;;;;;35.71;33.95;99387.78;7398037;19;20014;-63
2023/05/05 07:14:39;;;;;;;2.15;0.90;;;;;;;35.69;33.88;99390.59;7401731;19;20077;-63
2023/05/05 07:17:05;;;;;;;3.15;1.15;;;;;;;35.73;33.88;99390.03;7398078;19;20010;-63
2023/05/05 07:19:32;;;;;;;3.20;0.63;;;;;;;35.66;33.66;99389.03;7401169;19;20010;-63
2023/05/05 07:21:58;;;;;;;2.67;0.95;;;;;;;32.17;38.23;99403.47;7398092;19;20038;-63
2023/05/05 07:24:24;;;;;;;2.50;0.47;;;;;;;33.11;37.59;99401.25;7401228;19;20074;-64
2023/05/05 07:26:50;;;;;;;2.42;0.50;;;;;;;32.93;38.07;99408.94;7398629;19;20006;-63
2023/05/05 07:29:16;;;;;;;2.08;0.65;;;;;;;33.09;37.97;99403.28;7395938;19;20011;-63
2023/05/05 07:31:42;;;;;;;6.03;0.90;;;;;;;34.46;36.37;99392.53;7397824;19;20019;-64
2023/05/05 07:34:09;;;;;;;2.40;1.02;;;;;;;34.79;36.02;99402.00;7399198;19;20038;-64
2023/05/05 07:36:35;;;;;;;3.58;0.43;;;;;;;34.89;35.96;99401.69;7397923;19;20560;-63
2023/05/05 07:39:01;;;;;;;1.25;0.98;;;;;;;35.22;35.42;99401.66;7400237;19;20079;-64
2023/05/05 07:41:27;;;;;;;1.63;0.60;;;;;;;35.60;35.34;99400.41;7398167;19;20019;-64
2023/05/05 07:43:53;;;;;;;0.70;0.32;;;;;;;36.07;34.96;99405.13;7398347;19;20042;-64
2023/05/05 07:46:19;;;;;;;0.38;0.35;;;;;;;36.60;34.33;99405.72;7396735;19;20013;-64
2023/05/05 07:48:46;;;;;;;2.00;0.90;;;;;;;36.75;34.22;99407.69;7396028;19;20013;-63
2023/05/05 07:51:12;;;;;;;1.95;0.90;;;;;;;37.04;33.78;99403.63;7397278;19;20014;-64
2023/05/05 07:53:39;;;;;;;3.00;0.80;;;;;;;37.00;33.64;99398.44;7397291;19;20044;-64
2023/05/05 07:56:07;;;;;;;4.20;0.52;;;;;;;37.00;33.81;99412.97;7397467;19;20022;-64
2023/05/05 07:58:34;;;;;;;0.68;0.35;;;;;;;37.11;33.56;99419.84;7397359;19;20042;-64
2023/05/05 08:01:01;;;;;;;6.40;0.98;;;;;;;37.20;33.44;99416.56;7396650;19;20025;-64
2023/05/05 08:03:27;;;;;;;0.75;0.30;;;;;;;36.93;33.16;99416.31;7396532;19;20007;-64
2023/05/05 08:05:54;;;;;;;2.42;0.75;;;;;;;37.65;32.21;99418.03;7396801;19;20015;-64
2023/05/05 08:08:23;;;;;;;1.40;0.55;;;;;;;37.65;32.56;99415.13;7397876;19;20014;-64
2023/05/05 08:10:50;;;;;;;0.65;0.40;;;;;;;37.27;32.98;99414.59;7398687;19;20018;-64
2023/05/05 08:13:16;;;;;;;9.98;1.13;;;;;;;36.82;32.74;99411.56;7394506;19;20470;-64
2023/05/05 08:15:43;;;;;;;1.65;0.98;;;;;;;36.98;32.59;99417.94;7400190;19;20038;-64
2023/05/05 08:18:10;;;;;;;1.42;0.50;;;;;;;36.44;33.01;99423.28;7400004;19;20356;-64
2023/05/05 08:20:36;;;;;;;1.05;0.20;;;;;;;36.38;33.34;99419.38;7397958;19;20019;-65
2023/05/05 08:23:02;;;;;;;3.75;0.55;;;;;;;36.82;32.93;99418.09;7394893;19;20017;-65
2023/05/05 08:25:29;;;;;;;1.48;0.50;;;;;;;37.16;32.72;99425.16;7399646;19;20081;-65
2023/05/05 08:27:55;;;;;;;1.27;0.55;;;;;;;35.37;34.90;99429.81;7394750;19;20087;-65
2023/05/05 08:30:21;;;;;;;2.10;0.57;;;;;;;35.62;34.65;99426.56;7395459;19;20007;-65
2023/05/05 08:32:47;;;;;;;1.13;0.57;;;;;;;36.54;33.74;99433.75;7395012;19;20503;-65
2023/05/05 08:35:13;;;;;;;1.98;0.63;;;;;;;37.03;33.52;99431.94;7399134;19;20011;-66
2023/05/05 08:37:39;;;;;;;0.60;0.38;;;;;;;36.71;32.59;99436.56;7395662;19;20018;-65
2023/05/05 08:40:06;;;;;;;1.30;0.52;;;;;;;37.09;32.16;99428.50;7400527;19;20007;-66
2023/05/05 08:42:33;;;;;;;0.65;0.40;;;;;;;37.33;32.37;99432.22;7394954;19;20013;-65
2023/05/05 08:44:59;;;;;;;0.35;0.30;;;;;;;37.54;32.57;99442.38;7398668;19;20043;-65
2023/05/05 08:47:25;;;;;;;0.68;0.20;;;;;;;37.92;32.11;99434.94;7394835;19;20025;-66
2023/05/05 08:49:54;;;;;;;0.95;0.32;;;;;;;37.99;31.54;99445.31;7393603;19;20014;-65
2023/05/05 08:52:22;;;;;;;1.83;0.75;;;;;;;37.57;31.46;99441.03;7395998;19;20011;-65
2023/05/05 08:55:27;;;;;;;0.40;0.32;;;;;;;33.30;35.75;99446.19;7398641;19;20018;-66
2023/05/05 08:57:59;;;;;;;1.23;0.45;;;;;;;36.62;33.04;99437.72;7391694;19;20143;-66
2023/05/05 09:00:26;;;;;;;0.40;0.13;;;;;;;36.80;32.68;99432.53;7394143;19;20062;-65
2023/05/05 09:02:57;;;;;;;1.25;0.40;;;;;;;37.84;32.12;99434.66;7394222;19;20490;-65
2023/05/05 09:05:25;;;;;;;0.40;0.10;;;;;;;38.38;30.94;99439.25;7395919;19;20041;-64
2023/05/05 09:07:51;;;;;;;0.65;0.20;;;;;;;38.83;30.64;99441.31;7392128;19;20042;-65
2023/05/05 09:10:17;;;;;;;0.70;0.13;;;;;;;38.70;29.81;99444.56;7393493;19;20010;-65
2023/05/05 09:12:44;;;;;;;3.47;0.35;;;;;;;38.79;30.20;99441.19;7396089;19;20018;-65
2023/05/05 09:15:12;;;;;;;0.82;0.25;;;;;;;38.91;29.72;99444.44;7396467;19;20388;-65
2023/05/05 09:17:41;;;;;;;4.07;0.43;;;;;;;38.88;30.32;99436.34;7392010;19;20010;-65
2023/05/05 09:20:10;;;;;;;3.90;0.20;;;;;;;38.73;29.90;99438.09;7396630;19;20018;-65
2023/05/05 09:22:40;;;;;;;1.65;0.20;;;;;;;38.87;30.21;99432.69;7392275;19;20014;-65
2023/05/05 09:25:09;;;;;;;0.68;0.20;;;;;;;39.19;29.74;99436.47;7395532;19;20029;-66
2023/05/05 09:27:37;;;;;;;0.80;0.32;;;;;;;39.26;29.17;99431.53;7392392;19;20025;-66
2023/05/05 09:30:07;;;;;;;2.75;0.45;;;;;;;39.54;29.34;99429.34;7392886;19;20030;-66
2023/05/05 09:32:45;;;;;;;0.95;0.10;;;;;;;39.68;29.54;99423.13;7393890;19;20014;-66
2023/05/05 09:35:11;;;;;;;0.40;0.20;;;;;;;39.39;28.89;99418.75;7394549;19;20017;-66
2023/05/05 09:37:37;;;;;;;1.10;0.30;;;;;;;39.44;29.49;99420.31;7396739;19;20367;-66
2023/05/05 09:40:05;;;;;;;0.90;0.30;;;;;;;39.47;28.96;99424.78;7394389;19;20014;-67
2023/05/05 09:42:32;;;;;;;0.45;0.10;;;;;;;39.71;28.78;99413.75;7393328;19;20018;-66
2023/05/05 09:44:58;;;;;;;1.55;0.38;;;;;;;37.49;30.36;99426.25;7393736;19;20033;-66
2023/05/05 09:47:36;;;;;;;3.80;0.20;;;;;;;37.57;30.79;99426.50;7397359;19;20011;-67
2023/05/05 09:50:03;;;;;;;1.95;0.30;;;;;;;37.02;31.10;99426.81;7397281;19;20022;-67
2023/05/05 09:52:29;;;;;;;1.20;0.45;;;;;;;35.64;32.23;99428.78;7393632;19;20018;-67
2023/05/05 09:54:56;;;;;;;1.17;0.57;;;;;;;34.03;35.24;99433.94;7393543;19;20027;-67
2023/05/05 09:57:32;;;;;;;0.35;0.10;;;;;;;37.07;31.27;99426.28;7396895;19;20063;-65
2023/05/05 10:00:00;;;;;;;0.43;0.10;;;;;;;38.25;30.59;99422.88;7398095;19;20019;-66
2023/05/05 10:02:34;;;;;;;0.30;0.20;;;;;;;38.24;29.89;99418.47;7396466;19;20021;-66
2023/05/05 10:05:14;;;;;;;1.70;0.20;;;;;;;35.67;32.30;99422.38;7400771;19;20010;-67
2023/05/05 10:07:42;;;;;;;1.17;0.50;;;;;;;37.14;31.12;99416.34;7400332;19;20003;-66
2023/05/05 10:10:13;;;;;;;0.20;0.20;;;;;;;36.80;31.15;99425.97;7400647;19;20482;-66
2023/05/05 10:12:40;;;;;;;0.47;0.13;;;;;;;35.73;32.95;99413.97;7401102;19;20470;-66
2023/05/05 10:15:09;;;;;;;0.80;0.30;;;;;;;37.96;31.18;99417.59;7400136;19;20451;-66
2023/05/05 10:17:44;;;;;;;1.40;0.38;;;;;;;38.73;30.04;99414.81;7400898;19;20394;-66
2023/05/05 10:20:13;;;;;;;0.85;0.10;;;;;;;38.34;31.03;99421.69;7400238;19;20034;-67
2023/05/05 10:22:44;;;;;;;0.50;0.38;;;;;;;38.94;30.23;99410.28;7398535;19;20018;-68
2023/05/05 10:25:15;;;;;;;1.65;0.40;;;;;;;39.46;29.15;99410.91;7403933;19;20106;-67
2023/05/05 10:27:43;;;;;;;1.75;0.52;;;;;;;39.23;28.68;99406.69;7401440;19;20066;-67
2023/05/05 10:30:30;;;;;;;1.35;0.40;;;;;;;34.64;31.86;99404.91;7403820;19;20471;-68
2023/05/05 10:33:13;;;;;;;0.30;0.17;;;;;;;26.10;46.29;99417.91;7397921;19;20014;-70
2023/05/05 10:35:43;;;;;;;3.45;0.30;;;;;;;22.69;66.10;99429.75;7399709;19;20361;-68
2023/05/05 10:38:11;;;;;;;3.53;0.50;;;;;;;27.60;51.81;99425.84;7397802;19;20006;-70
2023/05/05 10:40:45;;;;;;;0.82;0.30;;;;;;;32.67;41.98;99419.88;7399278;19;20019;-69
2023/05/05 10:43:14;;;;;;;0.52;0.13;;;;;;;32.84;43.38;99419.31;7399483;19;20010;-70
2023/05/05 10:45:41;;;;;;;7.32;0.50;;;;;;;26.56;52.41;99424.38;7399189;19;20035;-70
2023/05/05 10:48:17;;;;;;;0.20;0.10;;;;;;;24.95;69.31;99424.91;7401910;19;20011;-69
2023/05/05 10:50:50;;;;;;;1.30;0.40;;;;;;;24.76;69.87;99416.91;7399975;19;20014;-70
2023/05/05 10:53:31;;;;;;;6.72;0.90;;;;;;;34.34;43.67;99399.25;7400085;19;20074;-67
2023/05/05 10:56:09;;;;;;;1.13;0.75;;;;;;;36.91;36.48;99402.47;7399365;19;20010;-67
2023/05/05 10:58:38;;;;;;;0.10;0.10;;;;;;;37.18;34.59;99401.22;7401331;19;20025;-65
2023/05/05 11:01:05;;;;;;;2.85;0.30;;;;;;;36.65;35.63;99394.97;7400064;19;20107;-66
2023/05/05 11:03:32;;;;;;;2.63;0.15;;;;;;;36.90;35.28;99400.25;7398408;19;20022;-66
2023/05/05 11:06:04;;;;;;;0.10;0.00;;;;;;;36.75;35.16;99401.91;7398867;19;20018;-66
2023/05/05 11:08:35;;;;;;;3.40;0.38;;;;;;;37.60;33.59;99408.44;7397477;19;20031;-64
2023/05/05 11:11:02;;;;;;;6.40;0.68;;;;;;;37.54;32.68;99405.34;7397498;19;20097;-69
2023/05/05 11:13:29;;;;;;;0.82;0.20;;;;;;;37.69;32.20;99400.72;7398790;19;20035;-69
2023/05/05 11:16:00;;;;;;;0.13;0.10;;;;;;;37.83;32.09;99404.88;7398342;19;20035;-73
2023/05/05 11:18:37;;;;;;;0.20;0.10;;;;;;;38.05;31.01;99401.91;7399751;19;20025;-70
2023/05/05 11:21:15;;;;;;;6.15;0.73;;;;;;;38.04;31.66;99393.81;7398533;19;20029;-67
2023/05/05 11:23:49;;;;;;;1.65;0.13;;;;;;;38.18;30.55;99395.00;7398990;19;20010;-68
2023/05/05 11:26:17;;;;;;;0.30;0.05;;;;;;;38.90;30.55;99392.72;7398176;19;20411;-67
2023/05/05 11:29:01;;;;;;;1.20;0.30;;;;;;;39.38;29.48;99388.13;7395811;19;20016;-70
2023/05/05 11:31:29;;;;;;;0.45;0.10;;;;;;;39.42;29.54;99376.56;7399358;19;20022;-69
2023/05/05 11:34:27;;;;;;;0.43;0.10;;;;;;;40.49;27.55;99373.16;7400631;19;20014;-68
2023/05/05 11:37:01;;;;;;;0.40;0.30;;;;;;;40.86;28.33;99371.69;7399191;19;20452;-68
2023/05/05 11:39:39;;;;;;;0.08;0.00;;;;;;;41.16;27.01;99364.19;7402071;19;20006;-69
2023/05/05 11:42:22;;;;;;;0.63;0.28;;;;;;;31.65;33.52;99385.41;7396640;19;20014;-70
2023/05/05 11:44:49;;;;;;;0.63;0.10;;;;;;;39.89;27.07;99358.75;7401615;19;20017;-68